PAIL

Iliamna Airport

Iliamna, Alaska, USA
PAIL 211740Z 2118/2218 VRB04KT P6SM -RA OVC025 TEMPO 2118/2121 OVC018 FM212200 15006KT P6SM VCSH SCT025 BKN035 FM220200 17005KT P6SM FEW035 BKN060
Issued Valid From Valid To
Jun-21 @ 17:40 UTC
(25 minutes ago)
Jun-21 @ 18:00 UTC
(5 minutes ago)
Jun-22 @ 18:00 UTC
(in 24 hours)
Jun-21 @ 18:00 to Jun-21 @ 22:00
PAIL 211740Z 2118/2218 VRB04KT P6SM -RA OVC025
Wind Visibility Clouds Conditions
Variable at 4 knots Greater than 6 miles
  • Overcast at 2,500' AGL
  • Light Rain
Temporary Jun-21 @ 18:00 to Jun-21 @ 21:00
TEMPO 2118/2121 OVC018
Clouds
  • Overcast at 1,800' AGL
From Jun-21 @ 22:00 to Jun-22 @ 02:00
FM212200 15006KT P6SM VCSH SCT025 BKN035
Wind Visibility Clouds
150° at 6 knots Greater than 6 miles
  • Scattered at 2,500' AGL
  • Broken at 3,500' AGL
From Jun-22 @ 02:00 to Jun-22 @ 18:00
FM220200 17005KT P6SM FEW035 BKN060
Wind Visibility Clouds
170° at 5 knots Greater than 6 miles
  • Few at 3,500' AGL
  • Broken at 6,000' AGL
PAIL 211740Z 2118/2218 VRB04KT P6SM -RA OVC025 TEMPO 2118/2121 OVC018 FM212200 15006KT P6SM VCSH SCT025 BKN035 FM220200 17005KT P6SM FEW035 BKN060
Issued Jun-21 @ 17:40 UTC
(25 minutes ago)
Valid From Jun-21 @ 18:00 UTC
(5 minutes ago)
Valid To Jun-22 @ 18:00 UTC
(in 24 hours)
Jun-21 @ 18:00 - Jun-21 @ 22:00
Wind Visibility
Variable at 4 knots Greater than 6 miles
Clouds
  • Overcast at 2,500' AGL
Conditions
  • Light Rain
Temporary Jun-21 @ 18:00 - Jun-21 @ 21:00
Clouds
  • Overcast at 1,800' AGL
From Jun-21 @ 22:00 - Jun-22 @ 02:00
Wind Visibility
150° at 6 knots Greater than 6 miles
Clouds
  • Scattered at 2,500' AGL
  • Broken at 3,500' AGL
From Jun-22 @ 02:00 - Jun-22 @ 18:00
Wind Visibility
170° at 5 knots Greater than 6 miles
Clouds
  • Few at 3,500' AGL
  • Broken at 6,000' AGL